OOMS/MCT METAR and TAF weather

Enter ICAO airport designator
Station Type Date Time Source
OOMS METAR 2020/09/23 17:50 UTC NOAA

OOMS 231750Z 23002KT CAVOK 33/08 Q1002 NOSIG


Station Type Date Time Source
OOMS Decoded METAR 2020/09/23 17:50 UTC NOAA

Seeb, International Airport, Oman (OOMS) 23-35N 058-17E 17M
Sep 23, 2020 - 01:50 PM EDT / 2020.09.23 1750 UTC
Wind: from the SW (230 degrees) at 2 MPH (2 KT):0
Visibility: greater than 7 mile(s):0
Temperature: 91 F (33 C)
Dew Point: 46 F (8 C)
Relative Humidity: 21%
Pressure (altimeter): 29.59 in. Hg (1002 hPa)
ob: OOMS 231750Z 23002KT CAVOK 33/08 Q1002 NOSIG
cycle: 18

Station Type Date Time Source
OOMS TAF 2020/09/23 18:03 UTC NOAA

TAF OOMS 231700Z 2318/2424 24005KT 8000 NSC
BECMG 2404/2406 35010KT
BECMG 2415/2417 VRB02KT

Example: see airport list